sensor_id;sensor_type;location;lat;lon;timestamp;P1;durP1;ratioP1;P2;durP2;ratioP2
44973;SDS011;60981;50.720;11.342;2023-04-24T00:00:32;3.38;;;1.30;;
44973;SDS011;60981;50.720;11.342;2023-04-24T00:01:33;3.05;;;1.20;;
44973;SDS011;60981;50.720;11.342;2023-04-24T00:02:36;6.38;;;1.45;;
44973;SDS011;60981;50.720;11.342;2023-04-24T00:03:41;3.15;;;1.40;;
44973;SDS011;60981;50.720;11.342;2023-04-24T00:04:43;3.47;;;1.10;;
44973;SDS011;60981;50.720;11.342;2023-04-24T00:05:47;3.38;;;1.20;;
44973;SDS011;60981;50.720;11.342;2023-04-24T00:06:49;3.00;;;1.10;;
44973;SDS011;60981;50.720;11.342;2023-04-24T00:07:55;2.72;;;0.93;;
44973;SDS011;60981;50.720;11.342;2023-04-24T00:08:57;3.67;;;1.20;;
44973;SDS011;60981;50.720;11.342;2023-04-24T00:09:58;2.80;;;1.13;;
44973;SDS011;60981;50.720;11.342;2023-04-24T00:11:00;2.67;;;1.10;;
44973;SDS011;60981;50.720;11.342;2023-04-24T00:12:02;3.65;;;0.93;;
44973;SDS011;60981;50.720;11.342;2023-04-24T00:13:06;2.40;;;1.17;;
44973;SDS011;60981;50.720;11.342;2023-04-24T00:14:07;2.75;;;1.20;;
44973;SDS011;60981;50.720;11.342;2023-04-24T00:15:09;4.20;;;1.20;;
44973;SDS011;60981;50.720;11.342;2023-04-24T00:16:11;2.47;;;0.88;;
44973;SDS011;60981;50.720;11.342;2023-04-24T00:17:12;2.33;;;0.93;;
44973;SDS011;60981;50.720;11.342;2023-04-24T00:18:14;4.60;;;1.60;;
44973;SDS011;60981;50.720;11.342;2023-04-24T00:19:16;3.38;;;0.90;;
44973;SDS011;60981;50.720;11.342;2023-04-24T00:20:17;4.60;;;1.58;;
44973;SDS011;60981;50.720;11.342;2023-04-24T00:21:20;4.53;;;1.30;;
44973;SDS011;60981;50.720;11.342;2023-04-24T00:22:22;3.33;;;0.98;;
44973;SDS011;60981;50.720;11.342;2023-04-24T00:23:24;3.22;;;1.00;;
44973;SDS011;60981;50.720;11.342;2023-04-24T00:24:26;3.65;;;1.25;;
44973;SDS011;60981;50.720;11.342;2023-04-24T00:25:27;2.85;;;1.20;;
44973;SDS011;60981;50.720;11.342;2023-04-24T00:26:29;2.20;;;0.70;;
44973;SDS011;60981;50.720;11.342;2023-04-24T00:27:31;3.22;;;1.45;;
44973;SDS011;60981;50.720;11.342;2023-04-24T00:28:32;5.05;;;1.55;;
44973;SDS011;60981;50.720;11.342;2023-04-24T00:29:34;2.55;;;1.10;;
44973;SDS011;60981;50.720;11.342;2023-04-24T00:30:36;2.95;;;1.02;;
44973;SDS011;60981;50.720;11.342;2023-04-24T00:31:37;2.90;;;1.17;;
44973;SDS011;60981;50.720;11.342;2023-04-24T00:32:39;2.78;;;1.20;;
44973;SDS011;60981;50.720;11.342;2023-04-24T00:33:41;3.17;;;1.40;;
44973;SDS011;60981;50.720;11.342;2023-04-24T00:34:42;2.53;;;1.00;;
44973;SDS011;60981;50.720;11.342;2023-04-24T00:35:44;3.15;;;1.40;;
44973;SDS011;60981;50.720;11.342;2023-04-24T00:36:45;3.03;;;1.40;;
44973;SDS011;60981;50.720;11.342;2023-04-24T00:37:47;4.82;;;1.20;;
44973;SDS011;60981;50.720;11.342;2023-04-24T00:38:49;3.85;;;1.48;;
44973;SDS011;60981;50.720;11.342;2023-04-24T00:39:51;3.10;;;1.40;;
44973;SDS011;60981;50.720;11.342;2023-04-24T00:40:52;4.68;;;1.98;;
44973;SDS011;60981;50.720;11.342;2023-04-24T00:41:55;4.00;;;1.38;;
44973;SDS011;60981;50.720;11.342;2023-04-24T00:42:58;6.93;;;4.30;;
44973;SDS011;60981;50.720;11.342;2023-04-24T00:43:59;3.45;;;1.80;;
44973;SDS011;60981;50.720;11.342;2023-04-24T00:45:01;2.95;;;1.30;;
44973;SDS011;60981;50.720;11.342;2023-04-24T00:46:04;2.70;;;1.15;;
44973;SDS011;60981;50.720;11.342;2023-04-24T00:47:06;2.80;;;1.10;;
44973;SDS011;60981;50.720;11.342;2023-04-24T00:48:08;3.10;;;1.20;;
44973;SDS011;60981;50.720;11.342;2023-04-24T00:49:10;2.63;;;1.13;;
44973;SDS011;60981;50.720;11.342;2023-04-24T00:50:12;3.10;;;1.45;;
44973;SDS011;60981;50.720;11.342;2023-04-24T00:51:15;3.97;;;1.00;;
44973;SDS011;60981;50.720;11.342;2023-04-24T00:52:17;4.35;;;1.40;;
44973;SDS011;60981;50.720;11.342;2023-04-24T00:53:22;3.17;;;1.08;;
44973;SDS011;60981;50.720;11.342;2023-04-24T00:54:23;3.55;;;1.48;;
44973;SDS011;60981;50.720;11.342;2023-04-24T00:55:25;2.10;;;0.80;;
44973;SDS011;60981;50.720;11.342;2023-04-24T00:56:27;3.20;;;1.63;;
44973;SDS011;60981;50.720;11.342;2023-04-24T00:57:29;2.45;;;1.10;;
44973;SDS011;60981;50.720;11.342;2023-04-24T00:58:31;3.75;;;0.93;;
44973;SDS011;60981;50.720;11.342;2023-04-24T00:59:33;4.28;;;1.10;;
44973;SDS011;60981;50.720;11.342;2023-04-24T01:00:34;2.42;;;0.90;;
44973;SDS011;60981;50.720;11.342;2023-04-24T01:01:36;2.33;;;0.80;;
44973;SDS011;60981;50.720;11.342;2023-04-24T01:02:41;2.70;;;0.80;;
44973;SDS011;60981;50.720;11.342;2023-04-24T01:03:50;3.45;;;0.95;;
44973;SDS011;60981;50.720;11.342;2023-04-24T01:04:52;2.53;;;0.73;;
44973;SDS011;60981;50.720;11.342;2023-04-24T01:05:54;3.25;;;0.93;;
44973;SDS011;60981;50.720;11.342;2023-04-24T01:06:56;5.53;;;1.00;;
44973;SDS011;60981;50.720;11.342;2023-04-24T01:07:58;2.50;;;0.73;;
44973;SDS011;60981;50.720;11.342;2023-04-24T01:08:59;3.65;;;1.00;;
44973;SDS011;60981;50.720;11.342;2023-04-24T01:10:02;2.63;;;0.85;;
44973;SDS011;60981;50.720;11.342;2023-04-24T01:11:04;2.63;;;0.80;;
44973;SDS011;60981;50.720;11.342;2023-04-24T01:12:06;4.72;;;1.00;;
44973;SDS011;60981;50.720;11.342;2023-04-24T01:13:08;2.95;;;0.98;;
44973;SDS011;60981;50.720;11.342;2023-04-24T01:14:09;2.38;;;0.88;;
44973;SDS011;60981;50.720;11.342;2023-04-24T01:15:11;3.75;;;0.90;;
44973;SDS011;60981;50.720;11.342;2023-04-24T01:16:13;6.45;;;1.20;;
44973;SDS011;60981;50.720;11.342;2023-04-24T01:17:16;3.55;;;0.80;;
44973;SDS011;60981;50.720;11.342;2023-04-24T01:18:18;3.08;;;0.90;;
44973;SDS011;60981;50.720;11.342;2023-04-24T01:19:19;2.75;;;0.95;;
44973;SDS011;60981;50.720;11.342;2023-04-24T01:20:21;3.03;;;0.88;;
44973;SDS011;60981;50.720;11.342;2023-04-24T01:21:23;1.98;;;0.70;;
44973;SDS011;60981;50.720;11.342;2023-04-24T01:22:29;2.85;;;0.80;;
44973;SDS011;60981;50.720;11.342;2023-04-24T01:23:30;2.95;;;0.70;;
44973;SDS011;60981;50.720;11.342;2023-04-24T01:24:32;3.13;;;0.80;;
44973;SDS011;60981;50.720;11.342;2023-04-24T01:25:34;2.83;;;1.05;;
44973;SDS011;60981;50.720;11.342;2023-04-24T01:26:35;3.45;;;0.75;;
44973;SDS011;60981;50.720;11.342;2023-04-24T01:27:37;2.33;;;0.75;;
44973;SDS011;60981;50.720;11.342;2023-04-24T01:28:38;3.95;;;0.70;;
44973;SDS011;60981;50.720;11.342;2023-04-24T01:29:40;2.15;;;0.70;;
44973;SDS011;60981;50.720;11.342;2023-04-24T01:30:43;3.88;;;0.90;;
44973;SDS011;60981;50.720;11.342;2023-04-24T01:31:44;2.90;;;0.60;;
44973;SDS011;60981;50.720;11.342;2023-04-24T01:32:46;2.10;;;0.68;;
44973;SDS011;60981;50.720;11.342;2023-04-24T01:33:48;2.67;;;0.90;;
44973;SDS011;60981;50.720;11.342;2023-04-24T01:34:50;1.73;;;0.60;;
44973;SDS011;60981;50.720;11.342;2023-04-24T01:35:52;1.83;;;0.60;;
44973;SDS011;60981;50.720;11.342;2023-04-24T01:36:54;5.13;;;0.77;;
44973;SDS011;60981;50.720;11.342;2023-04-24T01:37:55;2.65;;;0.88;;
44973;SDS011;60981;50.720;11.342;2023-04-24T01:38:57;2.72;;;0.80;;
44973;SDS011;60981;50.720;11.342;2023-04-24T01:39:59;1.95;;;0.70;;
44973;SDS011;60981;50.720;11.342;2023-04-24T01:41:00;2.40;;;0.73;;
44973;SDS011;60981;50.720;11.342;2023-04-24T01:42:02;3.85;;;1.17;;
44973;SDS011;60981;50.720;11.342;2023-04-24T01:43:04;4.25;;;1.08;;
44973;SDS011;60981;50.720;11.342;2023-04-24T01:44:05;1.98;;;0.65;;
44973;SDS011;60981;50.720;11.342;2023-04-24T01:45:07;1.35;;;0.50;;
44973;SDS011;60981;50.720;11.342;2023-04-24T01:46:11;2.28;;;0.80;;
44973;SDS011;60981;50.720;11.342;2023-04-24T01:47:13;3.15;;;0.80;;
44973;SDS011;60981;50.720;11.342;2023-04-24T01:48:15;3.08;;;0.75;;
44973;SDS011;60981;50.720;11.342;2023-04-24T01:49:16;2.60;;;0.80;;
44973;SDS011;60981;50.720;11.342;2023-04-24T01:50:18;2.25;;;0.80;;
44973;SDS011;60981;50.720;11.342;2023-04-24T01:51:20;2.95;;;0.85;;
44973;SDS011;60981;50.720;11.342;2023-04-24T01:52:21;2.88;;;0.73;;
44973;SDS011;60981;50.720;11.342;2023-04-24T01:53:23;2.60;;;0.80;;
44973;SDS011;60981;50.720;11.342;2023-04-24T01:54:24;2.13;;;0.73;;
44973;SDS011;60981;50.720;11.342;2023-04-24T01:55:27;2.35;;;0.85;;
44973;SDS011;60981;50.720;11.342;2023-04-24T01:56:29;5.97;;;0.80;;
44973;SDS011;60981;50.720;11.342;2023-04-24T01:57:31;2.35;;;0.73;;
44973;SDS011;60981;50.720;11.342;2023-04-24T01:58:33;2.38;;;0.60;;
44973;SDS011;60981;50.720;11.342;2023-04-24T01:59:34;3.38;;;0.73;;
44973;SDS011;60981;50.720;11.342;2023-04-24T02:00:37;2.05;;;0.73;;
44973;SDS011;60981;50.720;11.342;2023-04-24T02:01:39;2.00;;;0.73;;
44973;SDS011;60981;50.720;11.342;2023-04-24T02:02:41;2.85;;;0.95;;
44973;SDS011;60981;50.720;11.342;2023-04-24T02:03:47;2.35;;;1.00;;
44973;SDS011;60981;50.720;11.342;2023-04-24T02:04:49;3.55;;;1.35;;
44973;SDS011;60981;50.720;11.342;2023-04-24T02:05:51;2.30;;;0.90;;
44973;SDS011;60981;50.720;11.342;2023-04-24T02:06:53;3.90;;;1.40;;
44973;SDS011;60981;50.720;11.342;2023-04-24T02:07:54;3.90;;;1.55;;
44973;SDS011;60981;50.720;11.342;2023-04-24T02:08:59;2.65;;;1.48;;
44973;SDS011;60981;50.720;11.342;2023-04-24T02:10:01;5.20;;;1.40;;
44973;SDS011;60981;50.720;11.342;2023-04-24T02:11:02;3.42;;;1.60;;
44973;SDS011;60981;50.720;11.342;2023-04-24T02:12:04;3.42;;;1.40;;
44973;SDS011;60981;50.720;11.342;2023-04-24T02:13:06;4.47;;;1.42;;
44973;SDS011;60981;50.720;11.342;2023-04-24T02:14:08;4.10;;;1.33;;
44973;SDS011;60981;50.720;11.342;2023-04-24T02:15:09;2.75;;;1.10;;
44973;SDS011;60981;50.720;11.342;2023-04-24T02:16:11;2.55;;;0.95;;
44973;SDS011;60981;50.720;11.342;2023-04-24T02:17:13;2.70;;;1.00;;
44973;SDS011;60981;50.720;11.342;2023-04-24T02:18:16;1.98;;;0.68;;
44973;SDS011;60981;50.720;11.342;2023-04-24T02:19:18;2.20;;;0.73;;
44973;SDS011;60981;50.720;11.342;2023-04-24T02:20:20;2.40;;;0.80;;
44973;SDS011;60981;50.720;11.342;2023-04-24T02:21:21;2.33;;;0.80;;
44973;SDS011;60981;50.720;11.342;2023-04-24T02:22:23;3.75;;;0.95;;
44973;SDS011;60981;50.720;11.342;2023-04-24T02:23:25;2.22;;;0.70;;
44973;SDS011;60981;50.720;11.342;2023-04-24T02:24:28;2.58;;;1.20;;
44973;SDS011;60981;50.720;11.342;2023-04-24T02:25:29;4.07;;;1.15;;
44973;SDS011;60981;50.720;11.342;2023-04-24T02:26:31;3.10;;;1.20;;
44973;SDS011;60981;50.720;11.342;2023-04-24T02:27:33;4.00;;;0.88;;
44973;SDS011;60981;50.720;11.342;2023-04-24T02:28:34;3.00;;;1.05;;
44973;SDS011;60981;50.720;11.342;2023-04-24T02:29:36;2.85;;;1.20;;
44973;SDS011;60981;50.720;11.342;2023-04-24T02:30:37;3.42;;;1.20;;
44973;SDS011;60981;50.720;11.342;2023-04-24T02:31:39;2.67;;;1.08;;
44973;SDS011;60981;50.720;11.342;2023-04-24T02:32:41;2.45;;;1.05;;
44973;SDS011;60981;50.720;11.342;2023-04-24T02:33:42;2.35;;;1.00;;
44973;SDS011;60981;50.720;11.342;2023-04-24T02:34:44;2.33;;;1.02;;
44973;SDS011;60981;50.720;11.342;2023-04-24T02:35:46;2.28;;;0.93;;
44973;SDS011;60981;50.720;11.342;2023-04-24T02:36:47;3.10;;;0.90;;
44973;SDS011;60981;50.720;11.342;2023-04-24T02:37:49;2.50;;;0.82;;
44973;SDS011;60981;50.720;11.342;2023-04-24T02:38:51;3.00;;;1.00;;
44973;SDS011;60981;50.720;11.342;2023-04-24T02:39:52;4.93;;;1.33;;
44973;SDS011;60981;50.720;11.342;2023-04-24T02:40:54;2.67;;;1.30;;
44973;SDS011;60981;50.720;11.342;2023-04-24T02:41:55;3.05;;;1.30;;
44973;SDS011;60981;50.720;11.342;2023-04-24T02:42:57;2.47;;;1.23;;
44973;SDS011;60981;50.720;11.342;2023-04-24T02:43:59;2.75;;;1.20;;
44973;SDS011;60981;50.720;11.342;2023-04-24T02:45:00;3.40;;;1.33;;
44973;SDS011;60981;50.720;11.342;2023-04-24T02:46:02;2.33;;;1.17;;
44973;SDS011;60981;50.720;11.342;2023-04-24T02:47:04;3.10;;;1.38;;
44973;SDS011;60981;50.720;11.342;2023-04-24T02:48:06;3.70;;;1.20;;
44973;SDS011;60981;50.720;11.342;2023-04-24T02:49:07;3.95;;;1.10;;
44973;SDS011;60981;50.720;11.342;2023-04-24T02:50:09;2.78;;;1.27;;
44973;SDS011;60981;50.720;11.342;2023-04-24T02:51:11;2.75;;;1.40;;
44973;SDS011;60981;50.720;11.342;2023-04-24T02:52:12;7.18;;;2.22;;
44973;SDS011;60981;50.720;11.342;2023-04-24T02:53:14;4.53;;;1.15;;
44973;SDS011;60981;50.720;11.342;2023-04-24T02:54:16;4.60;;;1.48;;
44973;SDS011;60981;50.720;11.342;2023-04-24T02:55:17;2.78;;;1.30;;
44973;SDS011;60981;50.720;11.342;2023-04-24T02:56:19;3.10;;;1.10;;
44973;SDS011;60981;50.720;11.342;2023-04-24T02:57:21;3.55;;;0.90;;
44973;SDS011;60981;50.720;11.342;2023-04-24T02:58:23;4.53;;;1.20;;
44973;SDS011;60981;50.720;11.342;2023-04-24T02:59:24;3.45;;;0.93;;
44973;SDS011;60981;50.720;11.342;2023-04-24T03:00:28;4.30;;;0.90;;
44973;SDS011;60981;50.720;11.342;2023-04-24T03:01:30;2.55;;;0.70;;
44973;SDS011;60981;50.720;11.342;2023-04-24T03:02:32;2.08;;;0.90;;
44973;SDS011;60981;50.720;11.342;2023-04-24T03:03:33;3.03;;;0.93;;
44973;SDS011;60981;50.720;11.342;2023-04-24T03:04:35;3.88;;;1.10;;
44973;SDS011;60981;50.720;11.342;2023-04-24T03:05:38;4.07;;;1.20;;
44973;SDS011;60981;50.720;11.342;2023-04-24T03:06:39;2.38;;;1.00;;
44973;SDS011;60981;50.720;11.342;2023-04-24T03:07:41;3.67;;;0.90;;
44973;SDS011;60981;50.720;11.342;2023-04-24T03:08:43;2.70;;;0.77;;
44973;SDS011;60981;50.720;11.342;2023-04-24T03:09:44;3.58;;;1.08;;
44973;SDS011;60981;50.720;11.342;2023-04-24T03:10:46;1.95;;;0.90;;
44973;SDS011;60981;50.720;11.342;2023-04-24T03:11:48;1.90;;;0.80;;
44973;SDS011;60981;50.720;11.342;2023-04-24T03:12:50;4.45;;;1.10;;
44973;SDS011;60981;50.720;11.342;2023-04-24T03:13:52;3.72;;;1.33;;
44973;SDS011;60981;50.720;11.342;2023-04-24T03:14:53;2.10;;;0.80;;
44973;SDS011;60981;50.720;11.342;2023-04-24T03:15:55;2.03;;;0.75;;
44973;SDS011;60981;50.720;11.342;2023-04-24T03:16:57;2.35;;;0.75;;
44973;SDS011;60981;50.720;11.342;2023-04-24T03:17:58;3.63;;;1.02;;
44973;SDS011;60981;50.720;11.342;2023-04-24T03:19:01;3.22;;;0.90;;
44973;SDS011;60981;50.720;11.342;2023-04-24T03:20:03;2.80;;;0.90;;
44973;SDS011;60981;50.720;11.342;2023-04-24T03:21:06;3.83;;;1.38;;
44973;SDS011;60981;50.720;11.342;2023-04-24T03:22:08;2.47;;;1.10;;
44973;SDS011;60981;50.720;11.342;2023-04-24T03:23:10;2.72;;;1.10;;
44973;SDS011;60981;50.720;11.342;2023-04-24T03:24:12;2.60;;;1.10;;
44973;SDS011;60981;50.720;11.342;2023-04-24T03:25:13;4.07;;;1.02;;
44973;SDS011;60981;50.720;11.342;2023-04-24T03:26:15;3.33;;;1.27;;
44973;SDS011;60981;50.720;11.342;2023-04-24T03:27:17;3.92;;;2.28;;
44973;SDS011;60981;50.720;11.342;2023-04-24T03:28:18;4.22;;;2.17;;
44973;SDS011;60981;50.720;11.342;2023-04-24T03:29:21;4.47;;;2.35;;
44973;SDS011;60981;50.720;11.342;2023-04-24T03:30:22;4.63;;;2.40;;
44973;SDS011;60981;50.720;11.342;2023-04-24T03:31:24;4.40;;;1.88;;
44973;SDS011;60981;50.720;11.342;2023-04-24T03:32:26;3.58;;;1.73;;
44973;SDS011;60981;50.720;11.342;2023-04-24T03:33:27;2.80;;;1.55;;
44973;SDS011;60981;50.720;11.342;2023-04-24T03:34:29;4.32;;;1.70;;
44973;SDS011;60981;50.720;11.342;2023-04-24T03:35:30;3.58;;;1.90;;
44973;SDS011;60981;50.720;11.342;2023-04-24T03:36:32;5.03;;;1.30;;
44973;SDS011;60981;50.720;11.342;2023-04-24T03:37:34;3.05;;;1.17;;
44973;SDS011;60981;50.720;11.342;2023-04-24T03:38:35;3.17;;;1.30;;
44973;SDS011;60981;50.720;11.342;2023-04-24T03:39:37;4.43;;;1.33;;
44973;SDS011;60981;50.720;11.342;2023-04-24T03:40:39;2.92;;;1.20;;
44973;SDS011;60981;50.720;11.342;2023-04-24T03:41:40;4.53;;;1.20;;
44973;SDS011;60981;50.720;11.342;2023-04-24T03:42:42;3.50;;;1.58;;
44973;SDS011;60981;50.720;11.342;2023-04-24T03:43:44;2.85;;;1.27;;
44973;SDS011;60981;50.720;11.342;2023-04-24T03:44:45;3.78;;;1.50;;
44973;SDS011;60981;50.720;11.342;2023-04-24T03:45:47;3.72;;;1.13;;
44973;SDS011;60981;50.720;11.342;2023-04-24T03:46:49;3.95;;;1.60;;
44973;SDS011;60981;50.720;11.342;2023-04-24T03:47:50;3.17;;;1.20;;
44973;SDS011;60981;50.720;11.342;2023-04-24T03:48:52;3.65;;;1.30;;
44973;SDS011;60981;50.720;11.342;2023-04-24T03:49:54;3.15;;;0.95;;
44973;SDS011;60981;50.720;11.342;2023-04-24T03:50:57;9.35;;;1.23;;
44973;SDS011;60981;50.720;11.342;2023-04-24T03:51:58;5.95;;;1.25;;
44973;SDS011;60981;50.720;11.342;2023-04-24T03:53:00;2.40;;;1.20;;
44973;SDS011;60981;50.720;11.342;2023-04-24T03:54:01;2.92;;;1.20;;
44973;SDS011;60981;50.720;11.342;2023-04-24T03:55:03;2.50;;;1.20;;
44973;SDS011;60981;50.720;11.342;2023-04-24T03:56:05;3.05;;;1.08;;
44973;SDS011;60981;50.720;11.342;2023-04-24T03:57:07;4.68;;;1.48;;
44973;SDS011;60981;50.720;11.342;2023-04-24T03:58:08;4.97;;;1.48;;
44973;SDS011;60981;50.720;11.342;2023-04-24T03:59:10;3.10;;;1.50;;
44973;SDS011;60981;50.720;11.342;2023-04-24T04:00:12;3.38;;;1.70;;
44973;SDS011;60981;50.720;11.342;2023-04-24T04:01:13;4.75;;;1.48;;
44973;SDS011;60981;50.720;11.342;2023-04-24T04:02:17;2.70;;;1.38;;
44973;SDS011;60981;50.720;11.342;2023-04-24T04:03:19;3.17;;;1.40;;
44973;SDS011;60981;50.720;11.342;2023-04-24T04:04:21;4.03;;;1.50;;
44973;SDS011;60981;50.720;11.342;2023-04-24T04:05:23;3.10;;;1.48;;
44973;SDS011;60981;50.720;11.342;2023-04-24T04:06:24;3.78;;;1.85;;
44973;SDS011;60981;50.720;11.342;2023-04-24T04:07:26;3.30;;;1.45;;
44973;SDS011;60981;50.720;11.342;2023-04-24T04:08:28;3.28;;;1.42;;
44973;SDS011;60981;50.720;11.342;2023-04-24T04:09:29;5.35;;;1.60;;
44973;SDS011;60981;50.720;11.342;2023-04-24T04:10:31;3.00;;;1.30;;
44973;SDS011;60981;50.720;11.342;2023-04-24T04:11:33;5.68;;;1.80;;
44973;SDS011;60981;50.720;11.342;2023-04-24T04:12:34;2.75;;;1.40;;
44973;SDS011;60981;50.720;11.342;2023-04-24T04:13:36;3.33;;;1.80;;
44973;SDS011;60981;50.720;11.342;2023-04-24T04:14:37;4.45;;;1.50;;
44973;SDS011;60981;50.720;11.342;2023-04-24T04:15:39;4.30;;;1.50;;
44973;SDS011;60981;50.720;11.342;2023-04-24T04:16:41;3.22;;;1.60;;
44973;SDS011;60981;50.720;11.342;2023-04-24T04:17:43;5.45;;;1.38;;
44973;SDS011;60981;50.720;11.342;2023-04-24T04:18:45;2.97;;;1.50;;
44973;SDS011;60981;50.720;11.342;2023-04-24T04:19:46;3.60;;;1.52;;
44973;SDS011;60981;50.720;11.342;2023-04-24T04:20:48;3.20;;;1.30;;
44973;SDS011;60981;50.720;11.342;2023-04-24T04:21:50;4.05;;;1.60;;
44973;SDS011;60981;50.720;11.342;2023-04-24T04:22:54;4.38;;;1.60;;
44973;SDS011;60981;50.720;11.342;2023-04-24T04:23:55;4.07;;;1.83;;
44973;SDS011;60981;50.720;11.342;2023-04-24T04:24:58;4.93;;;1.52;;
44973;SDS011;60981;50.720;11.342;2023-04-24T04:25:59;3.45;;;1.60;;
44973;SDS011;60981;50.720;11.342;2023-04-24T04:27:01;3.92;;;1.65;;
44973;SDS011;60981;50.720;11.342;2023-04-24T04:28:03;3.35;;;1.70;;
44973;SDS011;60981;50.720;11.342;2023-04-24T04:29:04;7.03;;;1.80;;
44973;SDS011;60981;50.720;11.342;2023-04-24T04:30:08;4.78;;;1.30;;
44973;SDS011;60981;50.720;11.342;2023-04-24T04:31:11;2.65;;;1.38;;
44973;SDS011;60981;50.720;11.342;2023-04-24T04:32:12;5.88;;;1.80;;
44973;SDS011;60981;50.720;11.342;2023-04-24T04:33:14;3.70;;;1.60;;
44973;SDS011;60981;50.720;11.342;2023-04-24T04:34:16;4.85;;;1.38;;
44973;SDS011;60981;50.720;11.342;2023-04-24T04:35:17;3.58;;;1.40;;
44973;SDS011;60981;50.720;11.342;2023-04-24T04:36:19;2.78;;;1.40;;
44973;SDS011;60981;50.720;11.342;2023-04-24T04:37:21;3.20;;;1.65;;
44973;SDS011;60981;50.720;11.342;2023-04-24T04:38:23;7.10;;;1.58;;
44973;SDS011;60981;50.720;11.342;2023-04-24T04:39:24;4.43;;;1.65;;
44973;SDS011;60981;50.720;11.342;2023-04-24T04:40:26;3.55;;;1.80;;
44973;SDS011;60981;50.720;11.342;2023-04-24T04:41:29;4.07;;;2.10;;
44973;SDS011;60981;50.720;11.342;2023-04-24T04:42:31;4.93;;;1.80;;
44973;SDS011;60981;50.720;11.342;2023-04-24T04:43:34;3.30;;;1.65;;
44973;SDS011;60981;50.720;11.342;2023-04-24T04:44:35;4.05;;;1.63;;
44973;SDS011;60981;50.720;11.342;2023-04-24T04:45:37;5.22;;;1.67;;
44973;SDS011;60981;50.720;11.342;2023-04-24T04:46:40;3.08;;;1.50;;
44973;SDS011;60981;50.720;11.342;2023-04-24T04:47:43;3.30;;;1.30;;
44973;SDS011;60981;50.720;11.342;2023-04-24T04:48:44;3.38;;;1.30;;
44973;SDS011;60981;50.720;11.342;2023-04-24T04:49:47;2.85;;;1.58;;
44973;SDS011;60981;50.720;11.342;2023-04-24T04:50:49;4.07;;;1.80;;
44973;SDS011;60981;50.720;11.342;2023-04-24T04:51:51;5.35;;;2.00;;
44973;SDS011;60981;50.720;11.342;2023-04-24T04:52:52;3.90;;;2.00;;
44973;SDS011;60981;50.720;11.342;2023-04-24T04:53:54;3.90;;;2.20;;
44973;SDS011;60981;50.720;11.342;2023-04-24T04:54:56;5.97;;;1.80;;
44973;SDS011;60981;50.720;11.342;2023-04-24T04:55:57;4.05;;;1.65;;
44973;SDS011;60981;50.720;11.342;2023-04-24T04:56:59;3.58;;;1.98;;
44973;SDS011;60981;50.720;11.342;2023-04-24T04:58:04;5.55;;;2.63;;
44973;SDS011;60981;50.720;11.342;2023-04-24T04:59:06;4.68;;;2.10;;
44973;SDS011;60981;50.720;11.342;2023-04-24T05:00:08;3.55;;;1.98;;
44973;SDS011;60981;50.720;11.342;2023-04-24T05:01:12;4.93;;;1.50;;
44973;SDS011;60981;50.720;11.342;2023-04-24T05:02:13;3.08;;;1.15;;
44973;SDS011;60981;50.720;11.342;2023-04-24T05:03:15;4.20;;;1.55;;
44973;SDS011;60981;50.720;11.342;2023-04-24T05:04:21;3.53;;;1.13;;
44973;SDS011;60981;50.720;11.342;2023-04-24T05:05:23;2.92;;;0.98;;
44973;SDS011;60981;50.720;11.342;2023-04-24T05:06:25;2.75;;;0.85;;
44973;SDS011;60981;50.720;11.342;2023-04-24T05:07:27;2.35;;;1.02;;
44973;SDS011;60981;50.720;11.342;2023-04-24T05:08:29;3.97;;;1.25;;
44973;SDS011;60981;50.720;11.342;2023-04-24T05:09:30;3.60;;;1.13;;
44973;SDS011;60981;50.720;11.342;2023-04-24T05:10:32;2.85;;;1.05;;
44973;SDS011;60981;50.720;11.342;2023-04-24T05:11:33;3.50;;;1.50;;
44973;SDS011;60981;50.720;11.342;2023-04-24T05:12:35;3.47;;;1.00;;
44973;SDS011;60981;50.720;11.342;2023-04-24T05:13:37;3.47;;;1.40;;
44973;SDS011;60981;50.720;11.342;2023-04-24T05:14:41;4.25;;;1.48;;
44973;SDS011;60981;50.720;11.342;2023-04-24T05:15:43;4.00;;;1.30;;
44973;SDS011;60981;50.720;11.342;2023-04-24T05:16:44;5.43;;;1.30;;
44973;SDS011;60981;50.720;11.342;2023-04-24T05:17:46;3.83;;;1.60;;
44973;SDS011;60981;50.720;11.342;2023-04-24T05:18:48;5.45;;;1.10;;
44973;SDS011;60981;50.720;11.342;2023-04-24T05:19:49;4.20;;;1.20;;
44973;SDS011;60981;50.720;11.342;2023-04-24T05:20:51;4.68;;;0.80;;
44973;SDS011;60981;50.720;11.342;2023-04-24T05:21:52;3.40;;;1.60;;
44973;SDS011;60981;50.720;11.342;2023-04-24T05:22:54;2.88;;;0.80;;
44973;SDS011;60981;50.720;11.342;2023-04-24T05:23:56;2.65;;;0.77;;
44973;SDS011;60981;50.720;11.342;2023-04-24T05:24:58;4.55;;;1.08;;
44973;SDS011;60981;50.720;11.342;2023-04-24T05:25:59;2.45;;;0.93;;
44973;SDS011;60981;50.720;11.342;2023-04-24T05:27:05;4.65;;;0.73;;
44973;SDS011;60981;50.720;11.342;2023-04-24T05:28:07;4.97;;;1.67;;
44973;SDS011;60981;50.720;11.342;2023-04-24T05:29:08;5.18;;;1.48;;
44973;SDS011;60981;50.720;11.342;2023-04-24T05:30:10;6.18;;;2.30;;
44973;SDS011;60981;50.720;11.342;2023-04-24T05:31:12;2.85;;;0.90;;
44973;SDS011;60981;50.720;11.342;2023-04-24T05:32:14;4.97;;;1.05;;
44973;SDS011;60981;50.720;11.342;2023-04-24T05:33:15;3.70;;;0.70;;
44973;SDS011;60981;50.720;11.342;2023-04-24T05:34:17;3.55;;;0.75;;
44973;SDS011;60981;50.720;11.342;2023-04-24T05:35:19;1.98;;;0.50;;
44973;SDS011;60981;50.720;11.342;2023-04-24T05:36:20;2.55;;;0.60;;
44973;SDS011;60981;50.720;11.342;2023-04-24T05:37:22;1.65;;;0.40;;
44973;SDS011;60981;50.720;11.342;2023-04-24T05:38:24;2.20;;;0.77;;
44973;SDS011;60981;50.720;11.342;2023-04-24T05:39:25;2.50;;;0.65;;
44973;SDS011;60981;50.720;11.342;2023-04-24T05:40:27;6.13;;;1.30;;
44973;SDS011;60981;50.720;11.342;2023-04-24T05:41:29;4.00;;;1.70;;
44973;SDS011;60981;50.720;11.342;2023-04-24T05:42:31;2.60;;;0.95;;
44973;SDS011;60981;50.720;11.342;2023-04-24T05:43:33;2.28;;;0.70;;
44973;SDS011;60981;50.720;11.342;2023-04-24T05:44:34;3.17;;;0.40;;
44973;SDS011;60981;50.720;11.342;2023-04-24T05:45:36;3.00;;;0.73;;
44973;SDS011;60981;50.720;11.342;2023-04-24T05:46:38;6.45;;;0.70;;
44973;SDS011;60981;50.720;11.342;2023-04-24T05:47:40;2.92;;;0.60;;
44973;SDS011;60981;50.720;11.342;2023-04-24T05:48:41;4.40;;;1.08;;
44973;SDS011;60981;50.720;11.342;2023-04-24T05:49:43;3.95;;;0.50;;
44973;SDS011;60981;50.720;11.342;2023-04-24T05:50:45;2.92;;;0.80;;
44973;SDS011;60981;50.720;11.342;2023-04-24T05:51:49;2.83;;;0.57;;
44973;SDS011;60981;50.720;11.342;2023-04-24T05:52:50;2.92;;;0.80;;
44973;SDS011;60981;50.720;11.342;2023-04-24T05:53:52;3.33;;;0.65;;
44973;SDS011;60981;50.720;11.342;2023-04-24T05:54:54;2.40;;;0.60;;
44973;SDS011;60981;50.720;11.342;2023-04-24T05:55:56;3.58;;;0.50;;
44973;SDS011;60981;50.720;11.342;2023-04-24T05:56:58;1.75;;;0.50;;
44973;SDS011;60981;50.720;11.342;2023-04-24T05:58:00;1.63;;;0.30;;
44973;SDS011;60981;50.720;11.342;2023-04-24T05:59:02;3.88;;;0.50;;
44973;SDS011;60981;50.720;11.342;2023-04-24T06:00:05;3.50;;;0.30;;
44973;SDS011;60981;50.720;11.342;2023-04-24T06:01:07;2.35;;;0.40;;
44973;SDS011;60981;50.720;11.342;2023-04-24T06:02:08;2.42;;;0.50;;
44973;SDS011;60981;50.720;11.342;2023-04-24T06:03:10;2.58;;;0.45;;
44973;SDS011;60981;50.720;11.342;2023-04-24T06:04:12;2.38;;;0.20;;
44973;SDS011;60981;50.720;11.342;2023-04-24T06:05:15;3.78;;;0.88;;
44973;SDS011;60981;50.720;11.342;2023-04-24T06:06:17;1.73;;;0.20;;
44973;SDS011;60981;50.720;11.342;2023-04-24T06:07:19;2.05;;;0.40;;